Time;durP1;ratioP1;P1;durP2;ratioP2;P2;SDS_P1;SDS_P2;PMS_P1;PMS_P2;Temp;Humidity;BMP_temperature;BMP_pressure;BME280_temperature;BME280_humidity;BME280_pressure;Samples;Min_cycle;Max_cycle;Signal;HPM_P1;HPM_P2
2021/12/02 00:01:46;;;;;;;10.48;2.55;;;2.80;99.90;;;;;;5097232;28;20048;-89
2021/12/02 00:04:13;;;;;;;10.88;1.90;;;3.40;99.90;;;;;;5096453;28;20493;-89
2021/12/02 00:06:41;;;;;;;9.85;2.30;;;2.20;99.90;;;;;;5096810;28;20044;-89
2021/12/02 00:09:11;;;;;;;5.63;1.40;;;3.20;99.90;;;;;;5097337;28;20047;-89
2021/12/02 00:11:38;;;;;;;11.55;2.35;;;2.20;99.90;;;;;;5097358;28;20052;-89
2021/12/02 00:14:10;;;;;;;8.20;1.67;;;2.40;99.90;;;;;;5096992;28;20055;-89
2021/12/02 00:16:40;;;;;;;5.22;1.80;;;2.30;99.90;;;;;;5096196;28;20040;-89
2021/12/02 00:22:00;;;;;;;12.85;3.38;;;2.80;99.90;;;;;;5096405;28;20474;-89
2021/12/02 00:24:34;;;;;;;10.80;2.47;;;2.30;99.90;;;;;;5097018;28;20430;-89
2021/12/02 00:27:04;;;;;;;14.15;2.85;;;2.70;99.90;;;;;;5096965;28;20059;-89
2021/12/02 00:29:34;;;;;;;8.63;2.67;;;3.40;99.90;;;;;;5096729;28;20044;-90
2021/12/02 00:32:05;;;;;;;11.68;2.30;;;2.40;99.90;;;;;;5096616;28;20383;-90
2021/12/02 00:34:33;;;;;;;8.82;2.00;;;2.30;99.90;;;;;;5097273;28;20052;-89
2021/12/02 00:37:03;;;;;;;6.10;2.42;;;4.30;99.90;;;;;;5096344;28;20040;-89
2021/12/02 00:39:31;;;;;;;23.45;3.92;;;3.10;99.90;;;;;;5096562;28;20059;-89
2021/12/02 00:41:59;;;;;;;13.68;3.53;;;2.20;99.90;;;;;;5096413;28;20093;-89
2021/12/02 00:44:26;;;;;;;8.02;2.00;;;2.30;99.90;;;;;;5096687;28;20101;-89
2021/12/02 00:46:54;;;;;;;6.57;1.67;;;3.40;99.90;;;;;;5096217;28;20044;-89
2021/12/02 00:49:21;;;;;;;12.50;2.17;;;2.80;99.90;;;;;;5096366;28;20056;-89
2021/12/02 00:51:53;;;;;;;11.13;2.42;;;2.30;99.90;;;;;;5096107;28;20509;-89
2021/12/02 00:54:20;;;;;;;7.55;2.72;;;3.20;99.90;;;;;;5076145;28;20067;-89
2021/12/02 00:56:48;;;;;;;7.85;2.10;;;2.30;99.90;;;;;;5081650;28;20043;-89
2021/12/02 00:59:17;;;;;;;12.80;2.47;;;2.40;99.90;;;;;;5096026;28;20048;-89
2021/12/02 01:01:46;;;;;;;6.90;2.45;;;3.30;99.90;;;;;;5095723;28;20090;-89
2021/12/02 01:04:19;;;;;;;12.45;2.17;;;2.90;99.90;;;;;;5096304;28;20058;-89
2021/12/02 01:06:46;;;;;;;7.18;1.83;;;2.50;99.90;;;;;;5094974;28;20040;-89
2021/12/02 01:09:14;;;;;;;5.65;1.67;;;2.40;99.90;;;;;;5096108;28;20108;-89
2021/12/02 01:11:42;;;;;;;11.52;2.13;;;2.70;99.90;;;;;;5096039;28;20065;-89
2021/12/02 01:14:10;;;;;;;9.50;2.03;;;3.60;99.90;;;;;;5096275;28;20135;-88
2021/12/02 01:16:37;;;;;;;10.98;2.95;;;2.80;99.90;;;;;;5095671;28;20048;-89
2021/12/02 01:19:05;;;;;;;6.32;1.73;;;3.20;99.90;;;;;;5097965;28;20036;-89
2021/12/02 01:21:37;;;;;;;6.68;1.90;;;2.40;99.90;;;;;;5116205;28;20047;-90
2021/12/02 01:24:06;;;;;;;8.13;2.13;;;2.40;99.90;;;;;;5116092;28;20055;-90
2021/12/02 01:26:35;;;;;;;4.25;1.33;;;2.40;99.90;;;;;;5115587;28;20056;-89
2021/12/02 01:29:04;;;;;;;10.47;1.70;;;2.40;99.90;;;;;;5115798;28;20105;-89
2021/12/02 01:31:33;;;;;;;9.20;2.10;;;2.50;99.90;;;;;;5111757;28;20387;-90
2021/12/02 01:34:02;;;;;;;7.97;1.48;;;2.50;99.90;;;;;;5095457;28;20044;-89
2021/12/02 01:36:34;;;;;;;;;;;3.20;99.90;;;;;;5095802;28;20048;-89
2021/12/02 01:39:03;;;;;;;11.77;1.98;;;2.80;99.90;;;;;;5095064;28;19919;-89
2021/12/02 01:41:36;;;;;;;12.20;2.30;;;3.70;99.90;;;;;;5095372;28;20040;-90
2021/12/02 01:44:10;;;;;;;7.10;1.55;;;2.90;99.90;;;;;;5095285;28;20047;-90
2021/12/02 01:46:38;;;;;;;8.52;1.73;;;2.80;99.90;;;;;;5094991;28;20051;-90
2021/12/02 01:49:06;;;;;;;6.97;1.70;;;2.70;99.90;;;;;;5095164;28;20046;-89
2021/12/02 01:51:40;;;;;;;3.88;2.00;;;2.90;99.90;;;;;;5095230;28;20083;-90
2021/12/02 01:54:09;;;;;;;5.93;1.30;;;3.20;99.90;;;;;;5095144;28;20036;-90
2021/12/02 01:56:43;;;;;;;8.88;1.83;;;3.20;99.90;;;;;;5095065;28;20048;-87
2021/12/02 01:59:13;;;;;;;6.32;2.20;;;2.80;99.90;;;;;;5094758;28;20410;-88
2021/12/02 02:01:43;;;;;;;6.75;1.45;;;3.10;99.90;;;;;;5094800;28;20074;-88
2021/12/02 02:04:11;;;;;;;5.32;1.33;;;2.60;99.90;;;;;;5094612;28;20048;-88
2021/12/02 02:06:42;;;;;;;7.57;1.52;;;2.60;99.90;;;;;;5094617;28;20105;-88
2021/12/02 02:09:11;;;;;;;8.50;1.77;;;3.50;99.90;;;;;;5095138;28;20052;-89
2021/12/02 02:11:38;;;;;;;;;;;2.60;99.90;;;;;;5095481;28;20055;-89
2021/12/02 02:14:08;;;;;;;7.90;2.05;;;2.60;99.90;;;;;;5094113;28;19988;-88
2021/12/02 02:16:36;;;;;;;4.70;2.20;;;2.70;99.90;;;;;;5093620;28;20059;-89
2021/12/02 02:19:05;;;;;;;9.93;2.05;;;3.60;99.90;;;;;;5093774;28;20105;-89
2021/12/02 02:21:35;;;;;;;11.57;1.13;;;2.70;99.90;;;;;;5094039;28;20465;-89
2021/12/02 02:24:03;;;;;;;8.70;1.10;;;2.70;99.90;;;;;;5094545;28;20135;-89
2021/12/02 02:26:35;;;;;;;9.57;1.25;;;2.70;99.90;;;;;;5094318;28;20131;-89
2021/12/02 02:29:07;;;;;;;7.97;1.52;;;2.80;99.90;;;;;;5093632;28;20074;-89
2021/12/02 02:31:38;;;;;;;12.38;1.70;;;2.90;99.90;;;;;;5094719;28;20056;-89
2021/12/02 02:34:06;;;;;;;2.95;1.20;;;3.00;99.90;;;;;;5094865;28;20079;-89
2021/12/02 02:36:37;;;;;;;17.33;2.85;;;1.20;99.90;;;;;;5094767;28;20052;-89
2021/12/02 02:39:07;;;;;;;9.05;1.63;;;2.20;99.90;;;;;;5095116;28;20126;-89
2021/12/02 02:41:42;;;;;;;8.25;1.80;;;3.10;99.90;;;;;;5093998;28;20087;-89
2021/12/02 02:44:10;;;;;;;9.45;4.47;;;2.90;99.90;;;;;;5092905;28;20044;-89
2021/12/02 02:46:39;;;;;;;14.35;6.43;;;2.90;99.90;;;;;;5094528;28;20062;-89
2021/12/02 02:49:13;;;;;;;12.25;6.03;;;4.10;99.90;;;;;;5094532;28;20048;-89
2021/12/02 02:51:42;;;;;;;14.63;6.60;;;2.80;99.90;;;;;;5093951;28;20528;-89
2021/12/02 02:54:13;;;;;;;15.02;6.72;;;3.20;99.90;;;;;;5094519;28;20044;-90
2021/12/02 02:56:45;;;;;;;12.48;7.38;;;2.90;99.90;;;;;;5094773;28;20052;-89
2021/12/02 02:59:22;;;;;;;15.18;8.07;;;2.90;99.90;;;;;;5094281;28;20097;-89
2021/12/02 03:01:52;;;;;;;19.10;8.60;;;3.40;99.90;;;;;;5094337;28;20044;-89
2021/12/02 03:04:29;;;;;;;14.00;8.45;;;3.10;99.90;;;;;;5093778;28;20127;-89
2021/12/02 03:07:02;;;;;;;21.63;10.40;;;3.20;99.90;;;;;;5094552;28;20048;-89
2021/12/02 03:09:48;;;;;;;16.38;10.73;;;2.80;99.90;;;;;;5094537;28;20520;-89
2021/12/02 03:12:20;;;;;;;19.60;10.85;;;3.10;99.90;;;;;;5094203;28;20127;-89
2021/12/02 03:16:36;;;;;;;20.15;8.25;;;3.10;99.90;;;;;;5094372;28;20051;-89
2021/12/02 03:17:38;;;;;;;16.73;6.13;;;3.20;99.90;;;;;;5093740;28;20125;-89
2021/12/02 03:20:06;;;;;;;20.67;8.63;;;3.20;99.90;;;;;;5094021;28;20044;-88
2021/12/02 03:22:35;;;;;;;12.63;5.17;;;3.10;99.90;;;;;;5093602;28;20052;-88
2021/12/02 03:25:04;;;;;;;9.70;5.60;;;3.20;99.90;;;;;;5094188;28;20067;-89
2021/12/02 03:27:31;;;;;;;15.93;3.73;;;2.90;99.90;;;;;;5094664;28;20050;-89
2021/12/02 03:29:58;;;;;;;14.90;6.88;;;3.10;99.90;;;;;;5096086;28;20055;-89
2021/12/02 03:32:25;;;;;;;27.88;14.23;;;3.60;99.90;;;;;;5097793;28;20097;-89
2021/12/02 03:34:52;;;;;;;31.85;19.65;;;1.50;99.90;;;;;;5097278;28;20418;-89
2021/12/02 03:37:20;;;;;;;35.10;20.65;;;3.00;99.90;;;;;;5097014;28;20097;-89
2021/12/02 03:39:48;;;;;;;30.17;19.73;;;3.00;99.90;;;;;;5097418;28;20105;-89
2021/12/02 03:42:15;;;;;;;35.58;17.88;;;3.40;99.90;;;;;;5097109;28;20105;-89
2021/12/02 03:44:43;;;;;;;35.83;20.20;;;3.10;99.90;;;;;;5097244;28;20047;-89
2021/12/02 03:47:10;;;;;;;32.20;16.25;;;3.40;99.90;;;;;;5097058;28;20056;-89
2021/12/02 03:49:40;;;;;;;29.80;19.95;;;3.50;99.90;;;;;;5097238;28;20101;-89
2021/12/02 03:52:09;;;;;;;29.35;18.80;;;3.20;99.90;;;;;;5097126;28;20067;-89
2021/12/02 03:54:38;;;;;;;36.25;17.55;;;3.00;99.90;;;;;;5097331;28;20077;-88
2021/12/02 03:57:07;;;;;;;23.52;13.07;;;3.20;99.90;;;;;;5097112;28;20105;-89
2021/12/02 03:59:34;;;;;;;23.75;11.00;;;2.90;99.90;;;;;;5097092;28;20055;-89
2021/12/02 04:02:02;;;;;;;18.42;10.05;;;2.60;99.90;;;;;;5097039;28;20052;-89
2021/12/02 04:04:29;;;;;;;13.93;7.65;;;3.40;99.90;;;;;;5097118;28;20075;-89
2021/12/02 04:06:56;;;;;;;20.38;5.07;;;2.70;99.90;;;;;;5096496;28;20048;-89
2021/12/02 04:09:25;;;;;;;15.35;4.18;;;2.60;99.90;;;;;;5096783;28;20486;-89
2021/12/02 04:11:57;;;;;;;11.85;3.92;;;3.40;99.90;;;;;;5096932;28;20055;-89
2021/12/02 04:14:29;;;;;;;7.03;3.03;;;2.80;99.90;;;;;;5096071;28;20051;-88
2021/12/02 04:16:58;;;;;;;12.52;3.65;;;3.90;99.90;;;;;;5096170;28;20143;-89
2021/12/02 04:19:26;;;;;;;7.75;2.47;;;2.60;99.90;;;;;;5096474;28;20044;-89
2021/12/02 04:21:54;;;;;;;11.30;2.10;;;4.30;99.90;;;;;;5096442;28;20406;-89
2021/12/02 04:24:22;;;;;;;9.20;2.03;;;3.10;99.90;;;;;;5096640;28;20044;-89
2021/12/02 04:26:50;;;;;;;8.55;1.52;;;2.70;99.90;;;;;;5095767;28;20575;-89
2021/12/02 04:29:17;;;;;;;7.60;2.40;;;3.60;99.90;;;;;;5096365;28;20052;-89
2021/12/02 04:31:46;;;;;;;5.57;1.48;;;3.40;99.90;;;;;;5096508;28;20052;-89
2021/12/02 04:34:14;;;;;;;;;;;2.70;99.90;;;;;;5096716;28;20056;-89
2021/12/02 04:36:41;;;;;;;6.05;1.23;;;2.90;99.90;;;;;;5096736;28;20367;-89
2021/12/02 04:39:08;;;;;;;8.65;1.55;;;2.80;99.90;;;;;;5095923;28;20122;-88
2021/12/02 04:41:35;;;;;;;5.00;1.10;;;2.80;99.90;;;;;;5095999;28;20048;-89
2021/12/02 04:44:04;;;;;;;3.60;1.30;;;3.20;99.90;;;;;;5095668;28;20509;-89
2021/12/02 04:46:31;;;;;;;8.57;3.20;;;2.60;99.90;;;;;;5095881;28;20048;-89
2021/12/02 04:48:59;;;;;;;7.65;1.23;;;2.90;99.90;;;;;;5095985;28;20036;-89
2021/12/02 04:51:26;;;;;;;6.38;1.10;;;2.60;99.90;;;;;;5096066;28;20048;-89
2021/12/02 04:53:53;;;;;;;7.40;1.27;;;2.60;99.90;;;;;;5096191;28;20048;-89
2021/12/02 04:56:20;;;;;;;2.53;0.73;;;2.60;99.90;;;;;;5096462;28;20094;-89
2021/12/02 04:58:47;;;;;;;6.75;1.15;;;2.70;99.90;;;;;;5096057;28;20094;-89
2021/12/02 05:01:14;;;;;;;5.45;0.70;;;3.30;99.90;;;;;;5096687;28;20044;-89
2021/12/02 05:03:41;;;;;;;6.85;1.02;;;2.80;99.90;;;;;;5096022;28;20051;-89
2021/12/02 05:06:10;;;;;;;6.22;0.90;;;3.10;99.90;;;;;;5096166;28;20093;-89
2021/12/02 05:08:37;;;;;;;2.42;0.70;;;3.70;99.90;;;;;;5077674;28;20071;-89
2021/12/02 05:11:04;;;;;;;1.90;0.60;;;2.90;99.90;;;;;;5095875;28;20490;-90
2021/12/02 05:13:31;;;;;;;15.60;3.25;;;3.00;99.90;;;;;;5095727;28;20056;-90
2021/12/02 05:15:58;;;;;;;7.60;0.82;;;2.90;99.90;;;;;;5095937;28;20048;-89
2021/12/02 05:18:27;;;;;;;6.63;2.50;;;3.10;99.90;;;;;;5094980;28;20052;-90
2021/12/02 05:20:54;;;;;;;2.88;1.27;;;3.90;99.90;;;;;;5096183;28;20048;-89
2021/12/02 05:23:23;;;;;;;2.28;0.50;;;3.60;99.90;;;;;;5095619;28;20059;-89
2021/12/02 05:25:50;;;;;;;4.45;0.55;;;2.80;99.90;;;;;;5096169;28;20109;-89
2021/12/02 05:28:18;;;;;;;3.47;0.50;;;3.50;99.90;;;;;;5095337;28;20493;-89
2021/12/02 05:30:45;;;;;;;2.38;0.73;;;2.70;99.90;;;;;;5095116;28;20044;-89
2021/12/02 05:33:13;;;;;;;6.68;1.88;;;3.10;99.90;;;;;;5113766;28;20051;-90
2021/12/02 05:35:40;;;;;;;3.42;0.90;;;2.80;99.90;;;;;;5116111;28;20047;-89
2021/12/02 05:38:07;;;;;;;2.47;0.90;;;2.80;99.90;;;;;;5105566;28;20482;-88
2021/12/02 05:40:36;;;;;;;3.55;1.00;;;3.50;99.90;;;;;;5095835;28;20052;-90
2021/12/02 05:43:03;;;;;;;3.75;0.88;;;3.30;99.90;;;;;;5095794;28;20063;-89
2021/12/02 05:45:31;;;;;;;8.13;1.23;;;2.50;99.90;;;;;;5095578;28;20105;-90
2021/12/02 05:47:58;;;;;;;5.38;0.98;;;2.30;99.90;;;;;;5095012;28;20059;-87
2021/12/02 05:50:26;;;;;;;11.07;1.40;;;3.20;99.90;;;;;;5095470;28;20490;-89
2021/12/02 05:52:53;;;;;;;5.65;0.88;;;2.40;99.90;;;;;;5095170;28;20044;-89
2021/12/02 05:55:20;;;;;;;4.05;1.10;;;2.50;99.90;;;;;;5095511;28;20452;-89
2021/12/02 05:57:49;;;;;;;6.55;1.20;;;2.90;99.90;;;;;;5095112;28;20101;-89
2021/12/02 06:00:17;;;;;;;4.03;1.30;;;3.20;99.90;;;;;;5095232;28;20117;-89
2021/12/02 06:02:44;;;;;;;5.97;0.80;;;2.10;99.90;;;;;;5095245;28;20289;-89
2021/12/02 06:05:16;;;;;;;8.90;1.17;;;2.20;99.90;;;;;;5094909;28;20048;-89
2021/12/02 06:07:43;;;;;;;7.25;1.45;;;2.70;99.90;;;;;;5095732;28;20569;-89
2021/12/02 06:10:11;;;;;;;5.25;0.93;;;2.20;99.90;;;;;;5095246;28;20131;-89
2021/12/02 06:12:38;;;;;;;5.25;1.20;;;3.50;99.90;;;;;;5094503;28;20056;-89
2021/12/02 06:15:08;;;;;;;4.82;1.00;;;3.80;99.90;;;;;;5094283;28;20109;-89
2021/12/02 06:17:36;;;;;;;6.55;1.58;;;2.40;99.90;;;;;;5094653;28;20048;-89
2021/12/02 06:20:04;;;;;;;5.25;1.17;;;3.50;99.90;;;;;;5095405;28;20054;-88
2021/12/02 06:22:31;;;;;;;5.35;1.38;;;2.60;99.90;;;;;;5094108;28;20059;-89
2021/12/02 06:25:17;;;;;;;7.63;1.88;;;2.40;99.90;;;;;;5095153;28;20539;-88
2021/12/02 06:27:46;;;;;;;4.18;1.30;;;3.00;99.90;;;;;;5094562;28;20059;-90
2021/12/02 06:30:16;;;;;;;;;;;2.80;99.90;;;;;;5095657;28;20048;-89
2021/12/02 06:32:43;;;;;;;5.20;1.48;;;2.10;99.90;;;;;;5093961;28;19927;-90
2021/12/02 06:35:11;;;;;;;6.97;2.08;;;2.10;99.90;;;;;;5094776;28;20112;-88
2021/12/02 06:37:39;;;;;;;9.10;3.30;;;3.00;99.90;;;;;;5094408;28;20555;-87
2021/12/02 06:40:08;;;;;;;6.53;1.45;;;3.20;99.90;;;;;;5094941;28;20615;-88
2021/12/02 06:42:35;;;;;;;8.07;2.70;;;2.00;99.90;;;;;;5094026;28;20544;-89
2021/12/02 06:45:03;;;;;;;3.67;1.33;;;2.00;99.90;;;;;;5094706;28;20040;-88
2021/12/02 06:47:35;;;;;;;4.63;1.42;;;1.90;99.90;;;;;;5094756;28;20048;-88
2021/12/02 06:50:03;;;;;;;6.22;0.98;;;2.00;99.90;;;;;;5095047;28;20140;-87
2021/12/02 06:52:31;;;;;;;3.92;1.25;;;1.90;99.90;;;;;;5094774;28;20123;-88
2021/12/02 06:54:58;;;;;;;6.22;0.95;;;1.90;99.90;;;;;;5094720;28;20500;-88
2021/12/02 06:57:25;;;;;;;3.35;0.90;;;3.30;99.90;;;;;;5094942;28;20055;-88
2021/12/02 06:59:52;;;;;;;3.35;1.02;;;2.80;99.90;;;;;;5095359;28;20328;-88
2021/12/02 07:02:19;;;;;;;8.02;1.30;;;2.00;99.90;;;;;;5095128;28;20052;-88
2021/12/02 07:04:50;;;;;;;4.78;1.42;;;2.20;99.90;;;;;;5096832;28;20048;-89
2021/12/02 07:07:17;;;;;;;4.60;1.23;;;2.70;99.90;;;;;;5098275;28;20079;-89
2021/12/02 07:09:44;;;;;;;9.70;2.15;;;2.40;99.90;;;;;;5098493;28;20048;-89
2021/12/02 07:12:12;;;;;;;2.53;0.63;;;2.80;99.90;;;;;;5098254;28;20044;-89
2021/12/02 07:14:42;;;;;;;6.53;0.98;;;1.90;99.90;;;;;;5098326;28;20048;-89
2021/12/02 07:17:09;;;;;;;3.38;0.80;;;3.00;99.90;;;;;;5098144;28;20051;-88
2021/12/02 07:19:39;;;;;;;3.30;0.90;;;2.50;99.90;;;;;;5098495;28;20040;-89
2021/12/02 07:22:08;;;;;;;2.53;0.70;;;3.30;99.90;;;;;;5098875;28;20044;-89
2021/12/02 07:24:35;;;;;;;7.75;0.70;;;2.70;99.90;;;;;;5098691;28;20047;-89
2021/12/02 07:27:02;;;;;;;5.43;0.95;;;1.90;99.90;;;;;;5098899;28;20044;-89
2021/12/02 07:29:31;;;;;;;3.88;0.90;;;2.40;99.90;;;;;;5097896;28;20097;-90
2021/12/02 07:32:02;;;;;;;4.07;1.15;;;2.00;99.90;;;;;;5098306;28;20134;-89
2021/12/02 07:34:34;;;;;;;3.67;0.98;;;3.10;99.90;;;;;;5116141;28;20062;-90
2021/12/02 07:37:02;;;;;;;10.93;2.85;;;1.20;99.90;;;;;;5097196;28;20555;-89
2021/12/02 07:39:31;;;;;;;6.20;1.00;;;2.00;99.90;;;;;;5098208;28;20044;-88
2021/12/02 07:41:58;;;;;;;5.78;0.95;;;3.20;99.90;;;;;;5097438;28;20097;-89
2021/12/02 07:44:26;;;;;;;4.68;1.00;;;2.00;99.90;;;;;;5097096;28;20104;-89
2021/12/02 07:46:55;;;;;;;5.20;1.10;;;3.10;99.90;;;;;;5097029;28;20043;-89
2021/12/02 07:49:25;;;;;;;11.32;1.58;;;2.00;99.90;;;;;;5097046;28;20139;-89
2021/12/02 07:51:56;;;;;;;7.57;2.15;;;2.10;99.90;;;;;;5097328;28;20043;-90
2021/12/02 07:54:23;;;;;;;2.80;0.77;;;2.50;99.90;;;;;;5098626;28;20052;-89
2021/12/02 07:56:54;;;;;;;6.22;1.00;;;2.20;99.90;;;;;;5077054;28;20041;-89
2021/12/02 07:59:21;;;;;;;5.63;1.15;;;2.60;99.90;;;;;;5077888;28;20052;-89
2021/12/02 08:01:49;;;;;;;8.27;1.65;;;3.20;99.90;;;;;;5077135;28;20052;-89
2021/12/02 08:04:16;;;;;;;3.40;1.10;;;2.60;99.90;;;;;;5089146;28;20062;-90
2021/12/02 08:06:43;;;;;;;2.80;1.35;;;2.30;99.90;;;;;;5097310;28;20052;-89
2021/12/02 08:09:13;;;;;;;6.30;0.75;;;2.30;99.90;;;;;;5100303;28;20555;-89
2021/12/02 08:11:42;;;;;;;5.30;1.23;;;3.10;99.90;;;;;;5096746;28;20417;-89
2021/12/02 08:14:15;;;;;;;6.17;1.27;;;2.60;99.90;;;;;;5096787;28;20055;-89
2021/12/02 08:16:42;;;;;;;3.20;1.38;;;2.30;99.90;;;;;;5099208;28;20048;-88
2021/12/02 08:19:09;;;;;;;3.35;1.10;;;2.60;99.90;;;;;;5097797;28;20048;-89
2021/12/02 08:21:37;;;;;;;7.75;1.13;;;2.80;99.90;;;;;;5099750;28;20099;-87
2021/12/02 08:24:08;;;;;;;5.13;0.85;;;2.90;99.90;;;;;;5095467;28;20052;-89
2021/12/02 08:26:36;;;;;;;4.43;1.00;;;1.20;99.90;;;;;;5101270;28;20054;-88
2021/12/02 08:29:05;;;;;;;8.43;2.00;;;1.20;99.90;;;;;;5100718;28;20074;-89
2021/12/02 08:31:34;;;;;;;4.22;0.80;;;2.40;99.90;;;;;;5096623;28;20114;-89
2021/12/02 08:34:02;;;;;;;4.72;0.95;;;2.60;99.90;;;;;;5098521;28;20076;-90
2021/12/02 08:36:41;;;;;;;5.47;1.40;;;3.00;99.90;;;;;;5096931;28;20127;-89
2021/12/02 08:39:11;;;;;;;5.75;1.10;;;2.40;99.90;;;;;;5097462;28;20493;-89
2021/12/02 08:41:43;;;;;;;6.53;1.00;;;3.50;99.90;;;;;;5096383;28;20044;-89
2021/12/02 08:44:10;;;;;;;6.35;1.25;;;2.70;99.90;;;;;;5098933;28;20056;-91
2021/12/02 08:46:39;;;;;;;5.30;1.23;;;2.60;99.90;;;;;;5097746;28;20055;-90
2021/12/02 08:49:06;;;;;;;4.70;1.27;;;2.40;99.90;;;;;;5095742;28;20044;-87
2021/12/02 08:51:33;;;;;;;2.67;0.93;;;2.90;99.90;;;;;;5096284;28;20043;-87
2021/12/02 08:54:00;;;;;;;5.30;1.52;;;3.20;99.90;;;;;;5097081;28;20048;-87
2021/12/02 08:56:27;;;;;;;5.57;1.15;;;3.30;99.90;;;;;;5096188;28;20040;-87
2021/12/02 08:58:54;;;;;;;5.00;1.25;;;3.00;99.90;;;;;;5095729;28;20043;-88
2021/12/02 09:01:21;;;;;;;7.65;2.20;;;1.70;99.90;;;;;;5098818;28;20048;-87
2021/12/02 09:03:50;;;;;;;10.82;1.33;;;2.50;99.90;;;;;;5095461;28;20053;-86
2021/12/02 09:06:21;;;;;;;5.93;1.13;;;2.50;99.90;;;;;;5097496;28;20051;-88
2021/12/02 09:08:51;;;;;;;4.15;1.15;;;2.80;99.90;;;;;;5078832;28;20058;-89
2021/12/02 09:11:19;;;;;;;;;;;3.10;99.90;;;;;;5085734;28;20077;-90
2021/12/02 09:13:46;;;;;;;5.35;1.40;;;1.60;99.90;;;;;;5084401;28;19927;-87
2021/12/02 09:16:13;;;;;;;6.30;1.73;;;3.30;99.90;;;;;;5010553;28;20040;-90
2021/12/02 09:18:40;;;;;;;2.15;0.90;;;3.80;99.90;;;;;;5040541;28;20127;-89
2021/12/02 09:21:09;;;;;;;5.35;1.80;;;4.00;99.90;;;;;;5052976;28;20060;-91
2021/12/02 09:23:37;;;;;;;5.55;1.20;;;2.70;99.90;;;;;;5083671;28;20048;-89
2021/12/02 09:26:04;;;;;;;11.27;1.40;;;3.00;99.90;;;;;;5067596;28;20044;-88
2021/12/02 09:28:32;;;;;;;4.72;1.33;;;2.70;99.90;;;;;;5033100;28;20063;-88
2021/12/02 09:30:59;;;;;;;6.68;1.38;;;2.70;99.90;;;;;;5037941;28;20117;-87
2021/12/02 09:33:26;;;;;;;7.00;1.20;;;2.80;99.90;;;;;;5038234;28;20126;-90
2021/12/02 09:35:54;;;;;;;6.28;1.20;;;2.80;99.90;;;;;;5029627;28;20050;-88
2021/12/02 09:38:24;;;;;;;7.97;1.85;;;1.60;99.90;;;;;;5031366;28;20052;-89
2021/12/02 09:40:51;;;;;;;13.20;2.15;;;3.50;99.90;;;;;;5018629;28;20035;-87
2021/12/02 09:43:19;;;;;;;4.22;0.95;;;3.30;99.90;;;;;;5015240;28;20040;-88
2021/12/02 09:45:46;;;;;;;8.95;2.35;;;2.60;99.90;;;;;;5013603;28;20148;-87
2021/12/02 09:48:15;;;;;;;6.88;1.38;;;2.80;99.90;;;;;;5017378;28;20079;-89
2021/12/02 09:50:52;;;;;;;6.15;1.50;;;2.90;99.90;;;;;;5016997;28;20051;-87
2021/12/02 09:53:24;;;;;;;9.85;2.55;;;2.80;99.90;;;;;;5015091;28;21222;-86
2021/12/02 09:56:00;;;;;;;10.20;2.22;;;3.20;99.90;;;;;;5021689;28;20052;-84
2021/12/02 09:58:28;;;;;;;5.20;1.60;;;2.80;99.90;;;;;;5016974;28;20783;-87
2021/12/02 10:00:59;;;;;;;5.72;1.38;;;2.80;99.90;;;;;;5018626;28;22549;-87
2021/12/02 10:03:31;;;;;;;6.05;1.27;;;4.40;99.90;;;;;;5006513;28;20041;-89
2021/12/02 10:06:07;;;;;;;4.32;1.88;;;3.80;99.90;;;;;;5019311;28;20119;-91
2021/12/02 10:08:51;;;;;;;7.15;1.20;;;2.70;99.90;;;;;;5021992;28;20050;-89
2021/12/02 10:11:30;;;;;;;5.97;1.30;;;3.00;99.90;;;;;;5014410;28;20894;-87
2021/12/02 10:14:13;;;;;;;10.65;2.10;;;3.40;99.90;;;;;;5019119;28;20048;-88
2021/12/02 10:16:43;;;;;;;8.73;1.67;;;3.20;99.90;;;;;;5023929;28;20675;-92
2021/12/02 10:19:11;;;;;;;5.25;1.60;;;4.10;99.90;;;;;;5013822;28;20190;-88
2021/12/02 10:21:44;;;;;;;8.50;1.65;;;3.20;99.90;;;;;;5018430;28;20040;-90
2021/12/02 10:24:13;;;;;;;5.60;1.27;;;3.20;99.90;;;;;;5018426;28;20168;-90
2021/12/02 10:26:45;;;;;;;5.28;1.65;;;3.30;99.90;;;;;;5010593;28;20051;-89
2021/12/02 10:29:16;;;;;;;4.68;1.75;;;2.90;99.90;;;;;;5016067;28;20105;-89
2021/12/02 10:31:47;;;;;;;5.80;1.13;;;3.00;99.90;;;;;;5022756;28;20050;-89
2021/12/02 10:34:16;;;;;;;12.13;2.33;;;3.90;99.90;;;;;;5012244;28;20093;-87
2021/12/02 10:36:44;;;;;;;;;;;3.30;99.90;;;;;;5016411;28;20057;-89
2021/12/02 10:39:14;;;;;;;10.13;2.67;;;3.40;99.90;;;;;;5008595;28;20489;-87
2021/12/02 10:41:44;;;;;;;9.02;2.50;;;3.40;99.90;;;;;;5023281;28;20044;-86
2021/12/02 10:44:17;;;;;;;4.38;1.50;;;3.50;99.90;;;;;;5041627;28;20036;-90
2021/12/02 10:47:05;;;;;;;8.45;1.10;;;2.80;99.90;;;;;;5023304;28;20063;-88
2021/12/02 10:49:39;;;;;;;5.95;1.38;;;3.20;99.90;;;;;;5027913;28;20051;-89
2021/12/02 10:52:10;;;;;;;11.60;1.67;;;3.20;99.90;;;;;;5035123;28;20117;-89
2021/12/02 10:54:39;;;;;;;11.55;1.77;;;3.60;99.90;;;;;;5012962;28;20036;-92
2021/12/02 10:57:11;;;;;;;8.23;1.48;;;3.70;99.90;;;;;;5019167;28;20079;-88
2021/12/02 10:59:42;;;;;;;7.75;1.38;;;3.50;99.90;;;;;;5017146;28;20055;-88
2021/12/02 11:02:26;;;;;;;9.18;1.77;;;4.50;99.90;;;;;;5023965;28;20040;-89
2021/12/02 11:04:59;;;;;;;9.27;1.67;;;4.90;99.90;;;;;;5015949;28;20213;-89
2021/12/02 11:07:29;;;;;;;8.18;1.85;;;3.80;99.90;;;;;;5024314;28;20854;-90
2021/12/02 11:09:59;;;;;;;8.38;1.85;;;3.90;99.90;;;;;;5089583;28;20113;-90
2021/12/02 11:12:30;;;;;;;;;;;3.90;99.90;;;;;;5087560;28;20131;-89
2021/12/02 11:15:10;;;;;;;11.75;1.70;;;4.40;99.90;;;;;;5085326;28;19976;-89
2021/12/02 11:17:43;;;;;;;7.13;1.95;;;4.00;99.90;;;;;;5094827;28;20044;-91
2021/12/02 11:20:12;;;;;;;6.78;2.40;;;4.00;99.90;;;;;;5088270;28;20055;-89
2021/12/02 11:22:42;;;;;;;10.93;1.88;;;4.00;99.90;;;;;;5093250;28;20105;-89
2021/12/02 11:25:11;;;;;;;16.08;2.13;;;3.90;99.90;;;;;;5090502;28;20051;-88
2021/12/02 11:27:45;;;;;;;14.18;1.90;;;4.00;99.90;;;;;;5094897;28;20051;-87
2021/12/02 11:30:16;;;;;;;14.30;2.45;;;4.90;99.90;;;;;;5086902;28;20044;-89
2021/12/02 11:32:50;;;;;;;10.48;1.55;;;4.50;99.90;;;;;;5090214;28;20438;-86
2021/12/02 11:35:33;;;;;;;18.48;2.67;;;4.40;99.90;;;;;;5090983;28;20127;-89
2021/12/02 11:38:10;;;;;;;9.48;2.03;;;5.20;99.90;;;;;;5085716;28;20059;-89
2021/12/02 11:40:43;;;;;;;9.65;2.45;;;4.30;99.90;;;;;;5093470;28;20051;-87
2021/12/02 11:43:18;;;;;;;14.85;2.10;;;4.40;99.90;;;;;;5088565;28;20135;-88
2021/12/02 11:45:48;;;;;;;10.05;3.42;;;3.80;99.90;;;;;;5089052;28;20056;-88
2021/12/02 11:48:20;;;;;;;14.35;1.35;;;4.20;99.90;;;;;;5090438;28;20053;-89
2021/12/02 11:50:49;;;;;;;13.35;1.98;;;4.20;99.90;;;;;;5089719;28;20044;-92
2021/12/02 11:53:21;;;;;;;13.57;2.00;;;4.30;99.90;;;;;;5089266;28;20044;-89
2021/12/02 11:55:50;;;;;;;6.80;1.85;;;4.30;99.90;;;;;;5097940;28;20082;-88
2021/12/02 11:58:19;;;;;;;7.07;1.33;;;5.70;99.90;;;;;;5094287;28;20044;-87
2021/12/02 12:00:48;;;;;;;19.85;2.40;;;4.30;99.90;;;;;;5088185;28;20048;-88
2021/12/02 12:03:21;;;;;;;21.52;2.25;;;4.50;99.90;;;;;;5092267;28;20131;-89
2021/12/02 12:05:56;;;;;;;13.82;3.05;;;4.40;99.90;;;;;;5086620;28;20044;-89
2021/12/02 12:08:34;;;;;;;9.98;2.90;;;5.30;99.90;;;;;;5084144;28;20044;-88
2021/12/02 12:11:22;;;;;;;8.55;2.95;;;4.90;99.90;;;;;;5086384;28;20036;-89
2021/12/02 12:13:53;;;;;;;15.90;4.35;;;4.50;99.90;;;;;;5090124;28;20169;-89
2021/12/02 12:16:22;;;;;;;14.23;3.92;;;4.60;99.90;;;;;;5089423;28;20050;-89
2021/12/02 12:18:50;;;;;;;11.32;3.05;;;4.90;99.90;;;;;;5087958;28;20040;-89
2021/12/02 12:21:18;;;;;;;12.25;2.50;;;4.90;99.90;;;;;;5086048;28;20052;-88
2021/12/02 12:23:48;;;;;;;16.70;4.55;;;4.60;99.90;;;;;;5088028;28;20440;-88
2021/12/02 12:26:33;;;;;;;12.98;3.33;;;5.30;99.90;;;;;;5089739;28;20054;-89
2021/12/02 12:29:31;;;;;;;9.05;3.20;;;4.80;99.90;;;;;;5086818;28;21178;-88
2021/12/02 12:32:35;;;;;;;21.52;2.60;;;4.80;99.90;;;;;;5087583;28;20409;-89
2021/12/02 12:35:09;;;;;;;13.88;1.95;;;4.70;99.90;;;;;;5025721;28;20044;-90
2021/12/02 12:37:53;;;;;;;14.52;3.40;;;4.80;99.90;;;;;;5080213;28;20064;-88
2021/12/02 12:40:25;;;;;;;16.48;2.50;;;4.90;99.90;;;;;;5095909;28;20083;-87
2021/12/02 12:43:14;;;;;;;12.02;2.22;;;4.90;99.90;;;;;;5092433;28;20808;-89
2021/12/02 12:45:44;;;;;;;11.10;2.40;;;4.90;99.90;;;;;;5092497;28;20139;-89
2021/12/02 12:48:25;;;;;;;8.95;2.50;;;4.90;99.90;;;;;;5093782;28;20305;-88
2021/12/02 12:50:53;;;;;;;17.95;2.72;;;5.40;99.90;;;;;;5094057;28;20076;-87
2021/12/02 12:53:36;;;;;;;8.77;2.63;;;4.80;99.90;;;;;;5099939;28;20093;-88
2021/12/02 12:56:10;;;;;;;8.07;1.88;;;4.80;99.90;;;;;;5088824;28;20050;-87
2021/12/02 12:58:40;;;;;;;15.85;3.30;;;5.00;99.90;;;;;;5092862;28;20044;-87
2021/12/02 13:01:20;;;;;;;4.55;1.17;;;5.10;99.90;;;;;;5093820;28;20039;-88
2021/12/02 13:04:08;;;;;;;13.57;1.70;;;5.10;99.90;;;;;;5094833;28;20048;-87
2021/12/02 13:07:01;;;;;;;17.30;1.90;;;5.40;99.90;;;;;;5087970;28;20144;-89
2021/12/02 13:09:52;;;;;;;10.93;2.20;;;5.10;99.90;;;;;;5081831;28;20044;-88
2021/12/02 13:12:47;;;;;;;8.68;2.03;;;5.10;99.90;;;;;;5088105;28;20044;-90
2021/12/02 13:15:18;;;;;;;12.60;2.85;;;6.00;99.90;;;;;;5057756;28;20055;-94